Time;durP1;ratioP1;P1;durP2;ratioP2;P2;SDS_P1;SDS_P2;PMS_P1;PMS_P2;Temp;Humidity;BMP_temperature;BMP_pressure;BME280_temperature;BME280_humidity;BME280_pressure;Samples;Min_cycle;Max_cycle;Signal;HPM_P1;HPM_P2
2023/12/11 00:00:00;;;;;;;22.48;16.83;;;;;;;2.21;78.11;93388.53;519185;28;1588;-69
2023/12/11 00:00:16;;;;;;;21.85;16.05;;;;;;;2.20;77.50;93387.06;518270;28;3375;-69
2023/12/11 00:00:31;;;;;;;22.40;15.88;;;;;;;2.21;78.25;93385.81;519183;28;2998;-69
2023/12/11 00:00:47;;;;;;;22.38;15.65;;;;;;;2.22;77.79;93384.59;518283;28;2599;-69
2023/12/11 00:01:03;;;;;;;19.83;15.00;;;;;;;2.22;77.86;93385.34;517837;28;1873;-69
2023/12/11 00:01:19;;;;;;;21.33;15.10;;;;;;;2.25;77.56;93386.34;513333;28;2423;-69
2023/12/11 00:01:35;;;;;;;22.27;14.67;;;;;;;2.01;77.73;93351.44;514310;28;2016;-69
2023/12/11 00:01:50;;;;;;;21.38;14.43;;;;;;;2.26;77.90;93379.63;517455;28;1588;-69
2023/12/11 00:02:06;;;;;;;20.50;14.60;;;;;;;2.27;77.64;93381.13;518535;28;3132;-69
2023/12/11 00:02:21;;;;;;;19.00;14.60;;;;;;;2.25;77.29;93378.16;519347;28;1958;-69
2023/12/11 00:02:37;;;;;;;20.65;14.50;;;;;;;2.20;77.84;93379.66;518863;28;3060;-71
2023/12/11 00:02:52;;;;;;;22.10;14.63;;;;;;;2.16;78.47;93375.69;517346;28;2357;-69
2023/12/11 00:03:08;;;;;;;19.80;14.05;;;;;;;2.12;78.51;93377.94;517180;28;2030;-69
2023/12/11 00:03:23;;;;;;;19.13;13.93;;;;;;;2.10;78.48;93372.22;517052;28;3258;-69
2023/12/11 00:03:39;;;;;;;21.10;14.45;;;;;;;2.07;78.23;93373.22;516578;28;3111;-69
2023/12/11 00:03:54;;;;;;;20.80;14.77;;;;;;;2.04;78.57;93374.19;516428;28;3402;-69
2023/12/11 00:04:11;;;;;;;21.35;15.80;;;;;;;2.01;78.98;93369.75;516898;28;3499;-69
2023/12/11 00:04:27;;;;;;;23.73;17.05;;;;;;;2.02;78.54;93368.50;517355;28;3304;-69
2023/12/11 00:04:42;;;;;;;24.13;17.53;;;;;;;2.04;78.94;93376.91;516898;28;2393;-69
2023/12/11 00:04:58;;;;;;;23.83;17.37;;;;;;;2.04;78.72;93374.19;517868;28;3080;-69
2023/12/11 00:05:13;;;;;;;22.60;17.10;;;;;;;2.01;79.13;93369.75;518889;28;3313;-69
2023/12/11 00:05:28;;;;;;;22.93;17.83;;;;;;;2.01;78.70;93370.50;518334;28;3172;-69
2023/12/11 00:05:44;;;;;;;22.30;16.83;;;;;;;1.99;79.27;93372.22;518696;28;2007;-69
2023/12/11 00:06:00;;;;;;;20.43;15.63;;;;;;;1.98;79.47;93371.47;518684;28;2327;-69
2023/12/11 00:06:15;;;;;;;19.25;15.32;;;;;;;1.99;79.03;93372.22;519242;28;3135;-71
2023/12/11 00:06:31;;;;;;;20.00;15.33;;;;;;;1.94;79.00;93365.56;519313;28;3383;-69
2023/12/11 00:06:46;;;;;;;21.05;15.82;;;;;;;1.95;79.28;93369.03;519141;28;1763;-70
2023/12/11 00:07:02;;;;;;;21.98;15.68;;;;;;;1.93;79.42;93366.78;519091;28;3312;-69
2023/12/11 00:07:17;;;;;;;22.03;15.20;;;;;;;1.91;79.45;93365.78;519769;28;3053;-69
2023/12/11 00:07:33;;;;;;;22.02;15.65;;;;;;;1.92;79.31;93364.56;519183;28;2685;-69
2023/12/11 00:07:48;;;;;;;22.40;16.73;;;;;;;1.94;79.63;93365.56;517773;28;2312;-69
2023/12/11 00:08:04;;;;;;;22.50;16.48;;;;;;;1.96;79.28;93365.78;518777;28;2326;-69
2023/12/11 00:08:19;;;;;;;20.83;15.63;;;;;;;1.76;79.16;93327.94;518866;28;2907;-69
2023/12/11 00:08:35;;;;;;;18.70;14.80;;;;;;;1.91;79.18;93357.59;519073;28;2924;-69
2023/12/11 00:08:50;;;;;;;20.60;14.53;;;;;;;1.86;79.55;93356.41;518483;28;2885;-69
2023/12/11 00:09:06;;;;;;;20.88;14.70;;;;;;;1.85;79.64;93359.59;518485;28;2953;-69
2023/12/11 00:09:21;;;;;;;20.23;14.40;;;;;;;1.80;80.11;93363.81;519518;28;2863;-69
2023/12/11 00:09:37;;;;;;;20.70;14.57;;;;;;;1.79;79.65;93361.56;519052;28;3558;-69
2023/12/11 00:09:52;;;;;;;20.63;14.73;;;;;;;1.78;80.20;93358.09;518665;28;1738;-69
2023/12/11 00:10:08;;;;;;;20.52;14.68;;;;;;;1.78;79.90;93366.28;518373;28;2643;-69
2023/12/11 00:10:24;;;;;;;21.80;15.10;;;;;;;1.80;79.80;93363.06;518961;28;3082;-69
2023/12/11 00:10:39;;;;;;;23.23;14.93;;;;;;;1.78;80.19;93368.25;519462;28;3214;-69
2023/12/11 00:10:55;;;;;;;24.13;15.38;;;;;;;1.80;80.39;93360.34;518872;28;3268;-70
2023/12/11 00:11:12;;;;;;;22.50;16.00;;;;;;;1.79;80.38;93367.03;519219;28;2052;-69
2023/12/11 00:11:28;;;;;;;21.70;16.52;;;;;;;1.80;80.02;93358.34;518900;28;1611;-69
2023/12/11 00:11:43;;;;;;;21.10;16.50;;;;;;;1.81;80.02;93365.28;517577;28;3171;-69
2023/12/11 00:11:59;;;;;;;22.40;15.70;;;;;;;1.84;80.44;93360.84;517523;28;1938;-69
2023/12/11 00:12:15;;;;;;;23.02;15.85;;;;;;;1.83;80.28;93362.06;519775;28;1896;-69
2023/12/11 00:12:31;;;;;;;23.77;16.77;;;;;;;1.87;79.93;93366.03;520387;28;1823;-69
2023/12/11 00:12:46;;;;;;;25.47;17.70;;;;;;;1.88;80.40;93359.38;519804;28;2928;-69
2023/12/11 00:13:03;;;;;;;24.30;17.42;;;;;;;1.87;79.90;93359.84;518762;28;2042;-69
2023/12/11 00:13:18;;;;;;;23.25;16.90;;;;;;;1.85;79.81;93362.31;519583;28;1821;-69
2023/12/11 00:13:33;;;;;;;22.02;16.15;;;;;;;1.85;79.53;93365.03;520127;28;1910;-69
2023/12/11 00:13:49;;;;;;;20.47;15.80;;;;;;;1.85;79.87;93363.06;521457;28;2655;-69
2023/12/11 00:14:06;;;;;;;21.85;16.00;;;;;;;1.88;79.67;93350.44;520713;28;2458;-69
2023/12/11 00:14:21;;;;;;;21.70;16.13;;;;;;;1.90;79.95;93364.31;520035;28;1984;-71
2023/12/11 00:14:37;;;;;;;20.60;15.67;;;;;;;1.93;79.41;93366.03;519254;28;3524;-69
2023/12/11 00:14:52;;;;;;;18.47;14.77;;;;;;;1.94;79.08;93364.81;519107;28;1862;-69
2023/12/11 00:15:10;;;;;;;20.85;15.52;;;;;;;1.97;79.43;93369.25;518544;28;2069;-69
2023/12/11 00:15:25;;;;;;;21.42;16.00;;;;;;;1.97;79.07;93369.25;519589;28;1858;-69
2023/12/11 00:15:41;;;;;;;19.10;15.30;;;;;;;1.99;79.23;93364.06;519727;28;1874;-69
2023/12/11 00:15:56;;;;;;;20.23;15.43;;;;;;;2.00;79.48;93365.53;518795;28;1888;-70
2023/12/11 00:16:12;;;;;;;20.63;15.40;;;;;;;2.00;79.45;93369.00;519115;28;3433;-69
2023/12/11 00:16:27;;;;;;;21.02;15.18;;;;;;;2.00;79.24;93363.56;519217;28;2959;-69
2023/12/11 00:16:45;;;;;;;22.43;15.40;;;;;;;2.01;79.53;93362.34;519459;28;1854;-69
2023/12/11 00:17:01;;;;;;;20.23;14.90;;;;;;;2.01;79.10;93373.22;519273;28;3035;-69
2023/12/11 00:17:17;;;;;;;20.70;15.52;;;;;;;2.01;78.70;93365.06;519274;28;1629;-69
2023/12/11 00:17:32;;;;;;;23.48;16.65;;;;;;;2.01;78.93;93365.06;519218;28;2276;-69
2023/12/11 00:17:48;;;;;;;25.40;17.13;;;;;;;2.03;79.00;93370.00;519421;28;3065;-69
2023/12/11 00:18:03;;;;;;;24.17;17.40;;;;;;;2.04;79.28;93368.75;518564;28;3042;-69
2023/12/11 00:18:19;;;;;;;22.07;16.90;;;;;;;2.04;79.26;93364.06;519285;28;2950;-69
2023/12/11 00:18:35;;;;;;;22.65;16.55;;;;;;;2.06;79.38;93366.28;519962;28;2748;-69
2023/12/11 00:18:50;;;;;;;24.20;16.80;;;;;;;2.07;79.24;93367.78;520199;28;1781;-69
2023/12/11 00:19:06;;;;;;;23.47;16.57;;;;;;;2.08;78.97;93364.53;519161;28;2359;-70
2023/12/11 00:19:21;;;;;;;23.13;16.58;;;;;;;2.09;78.63;93370.75;519552;28;2424;-69
2023/12/11 00:19:37;;;;;;;24.67;16.83;;;;;;;2.12;78.36;93364.31;519369;28;2379;-69
2023/12/11 00:19:53;;;;;;;24.65;17.33;;;;;;;2.11;78.64;93363.56;518970;28;2506;-69
2023/12/11 00:20:09;;;;;;;23.40;16.23;;;;;;;2.13;78.08;93360.34;519191;28;3023;-70
2023/12/11 00:20:24;;;;;;;22.75;15.30;;;;;;;2.14;78.80;93356.38;519474;28;3115;-70
2023/12/11 00:20:40;;;;;;;22.47;15.60;;;;;;;2.14;78.27;93356.38;520168;28;2232;-69
2023/12/11 00:20:55;;;;;;;22.77;15.68;;;;;;;2.14;78.06;93362.56;518671;28;1866;-69
2023/12/11 00:21:11;;;;;;;23.53;15.13;;;;;;;2.14;78.24;93357.09;519760;28;3159;-69
2023/12/11 00:21:26;;;;;;;23.08;15.32;;;;;;;2.15;77.88;93360.56;518946;28;2162;-69
2023/12/11 00:21:42;;;;;;;23.73;16.60;;;;;;;2.17;78.07;93363.53;519663;28;3122;-69
2023/12/11 00:21:57;;;;;;;24.05;16.52;;;;;;;2.18;77.85;93365.03;518342;28;2319;-69
2023/12/11 00:22:13;;;;;;;24.43;15.63;;;;;;;2.16;77.71;93365.53;519353;28;1654;-69
2023/12/11 00:22:28;;;;;;;23.58;15.55;;;;;;;2.15;77.71;93363.31;518611;28;1854;-69
2023/12/11 00:22:46;;;;;;;20.37;15.20;;;;;;;2.15;77.72;93364.06;519965;28;1953;-69
2023/12/11 00:23:02;;;;;;;20.55;15.18;;;;;;;2.15;77.91;93366.03;519970;28;2599;-69
2023/12/11 00:23:17;;;;;;;22.48;15.80;;;;;;;2.15;77.76;93366.78;521499;28;1593;-69
2023/12/11 00:23:33;;;;;;;23.80;15.83;;;;;;;2.13;77.49;93369.25;518750;28;3087;-69
2023/12/11 00:23:48;;;;;;;23.98;16.30;;;;;;;2.13;77.90;93369.25;519986;28;2069;-69
2023/12/11 00:24:04;;;;;;;23.07;16.67;;;;;;;2.13;77.74;93369.25;520646;28;2937;-69
2023/12/11 00:24:19;;;;;;;22.48;16.25;;;;;;;2.12;77.75;93367.75;519628;28;3564;-69
2023/12/11 00:24:35;;;;;;;21.07;15.93;;;;;;;2.13;77.02;93360.34;520071;28;1582;-69
2023/12/11 00:24:51;;;;;;;22.55;16.70;;;;;;;2.12;77.59;93369.75;521550;28;1840;-69
2023/12/11 00:25:06;;;;;;;23.02;16.33;;;;;;;2.10;77.82;93366.78;520688;28;2977;-69
2023/12/11 00:25:22;;;;;;;21.53;15.47;;;;;;;2.09;77.57;93374.22;521824;28;3042;-70
2023/12/11 00:25:44;;;;;;;22.17;16.45;;;;;;;2.07;77.25;93365.78;521336;28;3901;-69
2023/12/11 00:26:00;;;;;;;23.88;17.23;;;;;;;2.02;77.45;93365.78;520815;28;2977;-69
2023/12/11 00:26:15;;;;;;;24.45;18.10;;;;;;;1.95;77.45;93366.31;522169;28;2571;-69
2023/12/11 00:26:31;;;;;;;26.60;17.98;;;;;;;1.93;76.99;93368.75;521424;28;1897;-69
2023/12/11 00:26:46;;;;;;;26.53;17.30;;;;;;;1.92;77.77;93367.28;521535;28;2728;-69
2023/12/11 00:27:02;;;;;;;24.92;17.27;;;;;;;1.92;77.47;93365.31;520673;28;3261;-69
2023/12/11 00:27:18;;;;;;;25.90;18.30;;;;;;;1.94;77.66;93364.81;522114;28;1677;-69
2023/12/11 00:27:33;;;;;;;28.75;19.60;;;;;;;1.94;77.80;93371.00;518896;28;1888;-69
2023/12/11 00:27:49;;;;;;;30.37;19.70;;;;;;;1.96;78.10;93373.97;519495;28;2560;-69
2023/12/11 00:28:04;;;;;;;29.67;19.73;;;;;;;1.97;77.48;93363.81;518564;28;2032;-69
2023/12/11 00:28:20;;;;;;;31.15;20.52;;;;;;;1.95;77.16;93364.28;520377;28;1758;-69
2023/12/11 00:28:35;;;;;;;32.57;20.43;;;;;;;1.97;77.55;93372.00;518655;28;1835;-69
2023/12/11 00:28:51;;;;;;;28.63;19.20;;;;;;;1.97;77.27;93369.25;519646;28;1789;-69
2023/12/11 00:29:06;;;;;;;28.17;20.52;;;;;;;1.98;77.62;93373.47;518490;28;1567;-69
2023/12/11 00:29:22;;;;;;;32.97;21.83;;;;;;;1.98;77.34;93371.47;519149;28;1852;-70
2023/12/11 00:29:38;;;;;;;36.72;22.33;;;;;;;1.99;77.32;93364.06;519552;28;3248;-69
2023/12/11 00:29:54;;;;;;;38.08;24.33;;;;;;;2.00;77.48;93374.44;519350;28;3079;-69
2023/12/11 00:30:10;;;;;;;37.58;25.70;;;;;;;2.02;77.31;93371.97;519745;28;1690;-69
2023/12/11 00:30:26;;;;;;;42.95;27.55;;;;;;;2.03;77.21;93368.03;518710;28;1981;-69
2023/12/11 00:30:41;;;;;;;48.45;29.52;;;;;;;2.02;77.20;93373.94;518591;28;2129;-69
2023/12/11 00:30:57;;;;;;;42.78;27.65;;;;;;;2.01;77.38;93364.31;518009;28;2328;-69
2023/12/11 00:31:13;;;;;;;39.63;25.53;;;;;;;2.07;77.16;93370.50;518320;28;1799;-69
2023/12/11 00:31:28;;;;;;;41.45;26.15;;;;;;;2.08;77.53;93378.16;518632;28;3775;-69
2023/12/11 00:31:44;;;;;;;40.10;26.63;;;;;;;2.09;77.25;93370.75;519996;28;1658;-69
2023/12/11 00:31:59;;;;;;;38.80;25.52;;;;;;;2.09;77.03;93373.47;518769;28;2240;-69
2023/12/11 00:32:15;;;;;;;40.70;25.15;;;;;;;2.10;77.22;93374.97;521436;28;3535;-69
2023/12/11 00:32:30;;;;;;;41.33;25.93;;;;;;;2.08;76.89;93375.44;521153;28;2012;-69
2023/12/11 00:32:46;;;;;;;38.53;25.80;;;;;;;2.06;77.03;93377.91;520435;28;1950;-69
2023/12/11 00:33:01;;;;;;;37.30;25.75;;;;;;;2.05;76.97;93375.69;521800;28;2949;-69
2023/12/11 00:33:17;;;;;;;37.50;25.70;;;;;;;2.05;77.21;93370.25;521138;28;3172;-69
2023/12/11 00:33:33;;;;;;;35.70;24.67;;;;;;;2.04;77.45;93380.38;521304;28;2508;-69
2023/12/11 00:33:49;;;;;;;35.78;24.40;;;;;;;2.04;76.66;93385.84;521277;28;1570;-69
2023/12/11 00:34:04;;;;;;;40.15;26.38;;;;;;;2.05;77.15;93379.16;520785;28;2094;-69
2023/12/11 00:34:20;;;;;;;44.17;27.40;;;;;;;2.05;76.87;93383.88;521199;28;3383;-69
2023/12/11 00:34:35;;;;;;;43.20;27.30;;;;;;;1.63;77.10;93319.50;521766;28;2570;-69
2023/12/11 00:34:51;;;;;;;41.13;26.38;;;;;;;2.05;76.51;93378.41;519218;28;1803;-69
2023/12/11 00:35:07;;;;;;;38.80;24.63;;;;;;;2.06;77.10;93385.34;521197;28;1888;-69
2023/12/11 00:35:22;;;;;;;39.03;25.08;;;;;;;2.07;77.04;93384.84;521938;28;1932;-69
2023/12/11 00:35:37;;;;;;;40.20;25.27;;;;;;;2.09;76.92;93384.34;521765;28;1816;-69
2023/12/11 00:35:53;;;;;;;36.15;24.10;;;;;;;2.09;76.40;93389.81;521132;28;3127;-69
2023/12/11 00:36:09;;;;;;;34.80;24.83;;;;;;;2.08;76.82;93385.59;521430;28;1996;-70
2023/12/11 00:36:24;;;;;;;35.58;24.15;;;;;;;2.11;76.49;93379.16;521699;28;1830;-70
2023/12/11 00:36:42;;;;;;;34.67;23.05;;;;;;;2.10;77.07;93388.56;521889;28;3086;-69
2023/12/11 00:36:58;;;;;;;36.03;24.23;;;;;;;2.11;76.16;93393.53;520526;28;1966;-69
2023/12/11 00:37:13;;;;;;;38.25;24.75;;;;;;;2.11;76.41;93390.78;520796;28;2452;-69
2023/12/11 00:37:28;;;;;;;42.23;25.13;;;;;;;2.12;76.20;93391.53;520950;28;3397;-69
2023/12/11 00:37:44;;;;;;;40.63;25.20;;;;;;;2.12;76.56;93389.53;520921;28;1937;-69
2023/12/11 00:38:00;;;;;;;36.40;24.83;;;;;;;2.13;76.29;93393.00;520764;28;2442;-69
2023/12/11 00:38:15;;;;;;;35.13;24.08;;;;;;;2.11;76.34;93390.78;520800;28;2527;-69
2023/12/11 00:38:31;;;;;;;37.30;24.37;;;;;;;2.12;76.12;93394.97;521366;28;2231;-69
2023/12/11 00:38:48;;;;;;;36.55;24.08;;;;;;;2.13;75.84;93396.47;520073;28;3200;-69
2023/12/11 00:39:03;;;;;;;32.13;22.38;;;;;;;2.12;76.02;93394.97;518321;28;3119;-69
2023/12/11 00:39:19;;;;;;;30.70;22.05;;;;;;;2.11;75.99;93392.78;519135;28;1955;-69
2023/12/11 00:39:34;;;;;;;32.53;22.13;;;;;;;2.10;76.06;93396.75;519033;28;2299;-69
2023/12/11 00:39:50;;;;;;;33.67;21.77;;;;;;;2.08;75.95;93391.78;519170;28;2592;-69
2023/12/11 00:40:06;;;;;;;34.60;22.27;;;;;;;2.06;75.60;93391.53;520463;28;3310;-69
2023/12/11 00:40:22;;;;;;;33.72;22.10;;;;;;;2.06;76.10;93398.94;521218;28;2898;-69
2023/12/11 00:40:38;;;;;;;32.43;21.43;;;;;;;2.05;75.60;93392.78;521026;28;1960;-69
2023/12/11 00:40:53;;;;;;;32.97;20.75;;;;;;;2.04;75.75;93395.97;520819;28;2232;-69
2023/12/11 00:41:09;;;;;;;33.25;20.05;;;;;;;2.05;75.43;93395.50;518488;28;1866;-69
2023/12/11 00:41:24;;;;;;;30.27;19.73;;;;;;;2.07;75.82;93400.44;519272;28;2356;-69
2023/12/11 00:41:40;;;;;;;28.33;20.85;;;;;;;2.06;75.79;93401.66;520327;28;2351;-69
2023/12/11 00:41:55;;;;;;;29.63;21.13;;;;;;;2.07;75.75;93411.34;518310;28;2619;-69
2023/12/11 00:42:11;;;;;;;29.05;20.58;;;;;;;2.07;75.75;93405.88;519945;28;3672;-69
2023/12/11 00:42:26;;;;;;;27.77;20.27;;;;;;;2.06;75.73;93405.13;518485;28;1924;-69
2023/12/11 00:42:41;;;;;;;28.05;20.60;;;;;;;2.06;75.32;93404.41;520319;28;1714;-69
2023/12/11 00:42:57;;;;;;;29.33;21.27;;;;;;;2.06;75.73;93405.13;518588;28;2457;-69
2023/12/11 00:43:12;;;;;;;30.60;20.70;;;;;;;2.07;75.55;93409.38;521745;28;1846;-69
2023/12/11 00:43:28;;;;;;;32.07;20.03;;;;;;;2.05;75.75;93403.69;520633;28;2278;-69
2023/12/11 00:43:43;;;;;;;31.63;20.47;;;;;;;2.04;75.69;93404.16;522135;28;3080;-69
2023/12/11 00:43:59;;;;;;;31.10;21.10;;;;;;;2.04;75.21;93406.88;519630;28;1591;-70
2023/12/11 00:44:14;;;;;;;30.73;20.93;;;;;;;2.03;75.43;93403.44;519598;28;2423;-69
2023/12/11 00:44:30;;;;;;;29.65;20.63;;;;;;;2.03;75.68;93408.13;519151;28;3654;-69
2023/12/11 00:44:45;;;;;;;29.25;21.13;;;;;;;2.04;75.30;93406.88;519906;28;2106;-69
2023/12/11 00:45:01;;;;;;;30.63;21.23;;;;;;;1.99;75.34;93411.06;518798;28;3140;-70
2023/12/11 00:45:16;;;;;;;29.63;20.80;;;;;;;1.97;75.28;93412.81;518649;28;3056;-69
2023/12/11 00:45:32;;;;;;;28.93;20.43;;;;;;;1.94;75.59;93405.63;519445;28;3562;-69
2023/12/11 00:45:48;;;;;;;29.83;20.17;;;;;;;1.87;76.04;93408.84;519337;28;3239;-69
2023/12/11 00:46:03;;;;;;;28.67;19.67;;;;;;;1.75;75.95;93412.78;519635;28;3510;-69
2023/12/11 00:46:22;;;;;;;28.02;19.05;;;;;;;1.62;76.52;93402.38;521083;28;2535;-69
2023/12/11 00:46:38;;;;;;;27.55;19.45;;;;;;;1.62;76.30;93415.25;521516;28;1586;-69
2023/12/11 00:46:53;;;;;;;30.93;20.47;;;;;;;1.60;76.60;93404.13;520177;28;1712;-69
2023/12/11 00:47:10;;;;;;;29.50;19.90;;;;;;;1.60;76.75;93412.28;521263;28;2389;-69
2023/12/11 00:47:25;;;;;;;28.52;19.65;;;;;;;1.62;76.87;93410.56;520605;28;1940;-69
2023/12/11 00:47:41;;;;;;;29.65;20.15;;;;;;;1.64;76.75;93415.50;521872;28;2620;-69
2023/12/11 00:47:56;;;;;;;27.53;19.50;;;;;;;1.58;77.16;93414.75;520687;28;2229;-69
2023/12/11 00:48:13;;;;;;;27.27;19.00;;;;;;;1.56;77.41;93417.22;519180;28;3832;-69
2023/12/11 00:48:28;;;;;;;28.75;18.90;;;;;;;1.54;77.72;93415.72;519544;28;3072;-69
2023/12/11 00:48:44;;;;;;;25.55;17.52;;;;;;;1.52;77.73;93414.72;521486;28;3247;-69
2023/12/11 00:49:00;;;;;;;25.77;17.85;;;;;;;1.50;77.81;93412.50;519171;28;1729;-69
2023/12/11 00:49:15;;;;;;;30.17;19.77;;;;;;;1.50;77.30;93412.50;518748;28;3557;-69
2023/12/11 00:49:31;;;;;;;29.77;20.08;;;;;;;1.53;78.14;93416.22;518614;28;1808;-69
2023/12/11 00:49:47;;;;;;;26.92;19.30;;;;;;;1.53;77.76;93408.06;518989;28;3021;-69
2023/12/11 00:50:03;;;;;;;27.63;18.60;;;;;;;1.51;77.85;93400.41;521198;28;3056;-69
2023/12/11 00:50:18;;;;;;;28.77;19.63;;;;;;;1.54;77.66;93409.53;521264;28;1816;-69
2023/12/11 00:50:34;;;;;;;29.43;20.20;;;;;;;1.52;78.13;93407.31;519832;28;2706;-69
2023/12/11 00:50:49;;;;;;;30.50;20.00;;;;;;;1.51;77.44;93411.28;519658;28;3263;-69
2023/12/11 00:51:05;;;;;;;29.33;19.30;;;;;;;1.44;77.97;93406.31;519421;28;2051;-69
2023/12/11 00:51:21;;;;;;;28.27;18.67;;;;;;;1.43;77.88;93410.25;519735;28;2984;-69
2023/12/11 00:51:36;;;;;;;27.57;18.30;;;;;;;1.37;77.86;93411.47;521180;28;1625;-69
2023/12/11 00:51:55;;;;;;;26.02;17.67;;;;;;;1.29;77.94;93411.22;520968;28;2402;-69
2023/12/11 00:52:10;;;;;;;25.75;18.45;;;;;;;1.22;78.21;93411.66;520977;28;1995;-69
2023/12/11 00:52:26;;;;;;;27.35;18.33;;;;;;;1.21;78.09;93410.16;521238;28;1842;-69
2023/12/11 00:52:41;;;;;;;28.93;18.43;;;;;;;1.15;78.72;93406.69;520721;28;3527;-69
2023/12/11 00:52:57;;;;;;;29.27;18.83;;;;;;;1.14;79.39;93407.94;520838;28;2047;-69
2023/12/11 00:53:12;;;;;;;28.90;18.55;;;;;;;1.16;78.78;93404.72;520963;28;3018;-69
2023/12/11 00:53:28;;;;;;;30.43;18.47;;;;;;;1.18;78.79;93405.72;520968;28;1938;-69
2023/12/11 00:53:47;;;;;;;26.90;17.60;;;;;;;1.18;79.04;93399.53;520656;28;2766;-69
2023/12/11 00:54:03;;;;;;;23.48;16.60;;;;;;;1.13;80.17;93402.97;521241;28;3066;-69
2023/12/11 00:54:19;;;;;;;26.33;17.20;;;;;;;0.94;79.90;93375.47;518422;28;3059;-69
2023/12/11 00:54:34;;;;;;;33.40;19.98;;;;;;;1.09;80.55;93405.19;519105;28;1819;-69
2023/12/11 00:54:50;;;;;;;34.43;20.67;;;;;;;1.06;80.81;93403.47;519128;28;2017;-69
2023/12/11 00:55:06;;;;;;;27.45;17.77;;;;;;;1.01;80.87;93398.75;519347;28;2203;-69
2023/12/11 00:55:21;;;;;;;24.42;15.73;;;;;;;1.00;81.04;93399.97;518778;28;3124;-69
2023/12/11 00:55:37;;;;;;;24.37;16.17;;;;;;;1.02;81.58;93400.97;519156;28;1845;-69
2023/12/11 00:55:52;;;;;;;23.20;16.95;;;;;;;1.02;81.40;93400.97;519814;28;3000;-69
2023/12/11 00:56:08;;;;;;;24.83;17.53;;;;;;;1.00;81.72;93395.28;521709;28;3400;-69
2023/12/11 00:56:23;;;;;;;23.95;16.60;;;;;;;1.02;81.57;93392.81;518457;28;2367;-69
2023/12/11 00:56:39;;;;;;;23.53;16.13;;;;;;;1.03;81.76;93393.56;520165;28;1950;-69
2023/12/11 00:56:55;;;;;;;26.23;17.08;;;;;;;1.05;81.65;93391.09;518212;28;1859;-69
2023/12/11 00:57:11;;;;;;;30.48;19.23;;;;;;;1.08;81.21;93401.00;519535;28;3389;-69
2023/12/11 00:57:26;;;;;;;34.63;21.42;;;;;;;1.09;81.30;93399.75;519550;28;2129;-69
2023/12/11 00:57:42;;;;;;;29.50;20.07;;;;;;;1.11;81.42;93397.28;521360;28;1593;-69
2023/12/11 00:57:57;;;;;;;24.80;17.50;;;;;;;1.13;81.17;93402.97;520908;28;3212;-69
2023/12/11 00:58:13;;;;;;;27.37;16.47;;;;;;;1.12;81.38;93402.25;521013;28;2877;-69
2023/12/11 00:58:28;;;;;;;25.92;16.63;;;;;;;1.13;81.26;93397.53;519176;28;3449;-69
2023/12/11 00:58:44;;;;;;;26.23;17.90;;;;;;;1.15;81.61;93400.53;519690;28;2693;-69
2023/12/11 00:58:59;;;;;;;27.52;18.85;;;;;;;1.18;81.55;93399.53;518601;28;3022;-69
2023/12/11 00:59:15;;;;;;;26.30;18.60;;;;;;;1.19;81.21;93399.03;519172;28;3206;-70
2023/12/11 00:59:30;;;;;;;25.33;17.52;;;;;;;1.20;81.31;93392.38;519364;28;3242;-70
2023/12/11 00:59:46;;;;;;;26.97;17.00;;;;;;;1.23;81.17;93394.13;518848;28;2010;-69
2023/12/11 01:00:01;;;;;;;25.67;16.30;;;;;;;1.22;80.82;93395.34;520600;28;1833;-69
2023/12/11 01:00:17;;;;;;;23.13;15.47;;;;;;;1.22;81.14;93395.34;520853;28;3209;-70
2023/12/11 01:00:32;;;;;;;24.73;16.15;;;;;;;1.24;80.95;93395.59;521222;28;3227;-69
2023/12/11 01:00:48;;;;;;;23.00;15.97;;;;;;;1.23;80.87;93391.41;518749;28;1847;-70
2023/12/11 01:01:04;;;;;;;20.77;14.93;;;;;;;1.18;80.77;93386.69;517209;28;3595;-69
2023/12/11 01:01:19;;;;;;;22.27;15.20;;;;;;;1.25;80.72;93399.06;516774;28;3105;-70
2023/12/11 01:01:35;;;;;;;23.50;15.93;;;;;;;1.24;80.57;93392.13;517247;28;2646;-69
2023/12/11 01:01:50;;;;;;;22.80;15.90;;;;;;;1.25;80.39;93393.63;516661;28;2347;-69
2023/12/11 01:02:06;;;;;;;22.83;15.77;;;;;;;1.25;80.60;93391.66;516475;28;2164;-70
2023/12/11 01:02:21;;;;;;;22.48;15.70;;;;;;;1.25;80.33;93388.94;517173;28;1832;-69
2023/12/11 01:02:38;;;;;;;19.73;15.53;;;;;;;1.25;80.84;93388.94;517601;28;2202;-70
2023/12/11 01:02:53;;;;;;;22.38;15.68;;;;;;;1.27;80.91;93391.91;519185;28;2285;-69
2023/12/11 01:03:08;;;;;;;24.90;16.20;;;;;;;1.27;80.35;93391.16;519093;28;1977;-69
2023/12/11 01:03:24;;;;;;;24.55;16.55;;;;;;;1.29;80.41;93394.88;519495;28;3160;-69
2023/12/11 01:03:39;;;;;;;24.43;16.47;;;;;;;1.29;80.26;93399.59;519563;28;2883;-70
2023/12/11 01:03:55;;;;;;;24.23;16.85;;;;;;;1.27;80.36;93393.88;518765;28;1846;-69
2023/12/11 01:04:12;;;;;;;26.27;17.33;;;;;;;1.27;80.39;93394.63;520084;28;2576;-69
2023/12/11 01:04:28;;;;;;;22.80;15.55;;;;;;;1.27;80.27;93391.16;520656;28;1835;-69
2023/12/11 01:04:44;;;;;;;20.88;15.02;;;;;;;1.27;80.20;93402.81;521413;28;1885;-69
2023/12/11 01:04:59;;;;;;;22.98;15.30;;;;;;;1.27;80.02;93394.63;520434;28;1597;-69
2023/12/11 01:05:15;;;;;;;24.60;16.00;;;;;;;1.28;80.41;93393.38;520955;28;3099;-69
2023/12/11 01:05:31;;;;;;;24.97;16.00;;;;;;;1.30;80.10;93395.63;520893;28;2992;-69
2023/12/11 01:05:46;;;;;;;23.98;15.48;;;;;;;1.31;80.52;93394.41;520992;28;2599;-69
2023/12/11 01:06:02;;;;;;;22.20;15.67;;;;;;;1.32;80.52;93393.16;520249;28;1835;-69
2023/12/11 01:06:17;;;;;;;24.67;16.17;;;;;;;1.32;80.35;93401.34;520474;28;1863;-69
2023/12/11 01:06:33;;;;;;;24.88;16.58;;;;;;;1.34;79.95;93396.16;521440;28;3007;-69
2023/12/11 01:06:48;;;;;;;22.67;16.97;;;;;;;1.34;80.24;93399.59;520714;28;2048;-69
2023/12/11 01:07:04;;;;;;;22.33;16.42;;;;;;;1.34;79.79;93396.16;521450;28;3769;-69
2023/12/11 01:07:20;;;;;;;23.93;16.00;;;;;;;1.34;79.71;93396.88;519667;28;2476;-69
2023/12/11 01:07:35;;;;;;;25.13;16.27;;;;;;;1.35;80.42;93395.66;519994;28;1826;-69
2023/12/11 01:07:51;;;;;;;21.23;15.23;;;;;;;1.36;79.98;93397.16;519852;28;1852;-69
2023/12/11 01:08:07;;;;;;;21.57;15.63;;;;;;;1.37;80.31;93397.88;520891;28;1802;-69
2023/12/11 01:08:27;;;;;;;22.70;16.42;;;;;;;1.38;79.94;93396.66;520844;28;3228;-69
2023/12/11 01:08:43;;;;;;;22.17;15.93;;;;;;;1.39;79.46;93392.69;520514;28;3359;-69
2023/12/11 01:08:58;;;;;;;23.25;16.02;;;;;;;1.39;79.95;93392.69;518524;28;3143;-69
2023/12/11 01:09:14;;;;;;;21.97;15.80;;;;;;;1.13;79.56;93352.06;520368;28;3252;-69
2023/12/11 01:09:29;;;;;;;24.45;15.70;;;;;;;1.41;79.54;93390.94;520645;28;2957;-69
2023/12/11 01:09:44;;;;;;;27.07;15.47;;;;;;;1.43;79.64;93387.72;521054;28;2975;-69
2023/12/11 01:10:01;;;;;;;23.65;15.25;;;;;;;1.42;79.33;93387.00;520663;28;1874;-69
2023/12/11 01:10:16;;;;;;;23.25;15.65;;;;;;;1.43;78.72;93383.03;518128;28;3201;-69
2023/12/11 01:10:32;;;;;;;22.70;15.70;;;;;;;1.43;79.12;93393.19;521022;28;1902;-69
2023/12/11 01:10:47;;;;;;;20.47;15.33;;;;;;;1.43;79.17;93385.00;518806;28;2020;-70
2023/12/11 01:11:03;;;;;;;21.43;15.60;;;;;;;1.42;78.59;93392.44;519456;28;2501;-69
2023/12/11 01:11:18;;;;;;;23.90;15.85;;;;;;;1.43;78.80;93385.00;518861;28;2853;-69
2023/12/11 01:11:34;;;;;;;23.95;15.63;;;;;;;1.42;78.27;93388.97;519520;28;1930;-69
2023/12/11 01:11:49;;;;;;;25.80;15.67;;;;;;;1.43;78.23;93398.63;519940;28;2517;-70
2023/12/11 01:12:05;;;;;;;26.50;15.90;;;;;;;1.43;78.55;93388.47;521385;28;2350;-69
2023/12/11 01:12:20;;;;;;;22.83;15.67;;;;;;;1.41;78.91;93382.78;519890;28;3157;-70
2023/12/11 01:12:36;;;;;;;24.95;16.08;;;;;;;1.41;78.73;93385.50;520889;28;1839;-70
2023/12/11 01:12:52;;;;;;;25.38;16.45;;;;;;;1.40;77.99;93386.75;518718;28;2988;-69
2023/12/11 01:13:07;;;;;;;24.67;16.57;;;;;;;1.40;78.56;93389.47;521660;28;3594;-69
2023/12/11 01:13:23;;;;;;;27.83;18.10;;;;;;;1.39;78.22;93384.50;520484;28;2255;-69
2023/12/11 01:13:38;;;;;;;25.80;17.73;;;;;;;1.41;78.37;93388.22;521445;28;2815;-70
2023/12/11 01:13:54;;;;;;;25.98;17.20;;;;;;;1.40;78.59;93383.28;519887;28;3008;-70
2023/12/11 01:14:09;;;;;;;28.87;17.60;;;;;;;1.41;78.08;93388.22;521316;28;1831;-69
2023/12/11 01:14:25;;;;;;;29.13;17.67;;;;;;;1.42;78.26;93384.28;518314;28;1940;-70
2023/12/11 01:14:40;;;;;;;27.07;17.40;;;;;;;1.42;78.52;93389.72;519760;28;3981;-69